sensor_id;sensor_type;location;lat;lon;timestamp;pressure;altitude;pressure_sealevel;temperature;humidity
74218;BME280;62579;47.288;18.646;2023-01-10T00:02:06;98612.78;;;6.49;100.00
74218;BME280;62579;47.288;18.646;2023-01-10T00:04:31;98605.94;;;6.42;100.00
74218;BME280;62579;47.288;18.646;2023-01-10T00:06:57;98607.69;;;6.40;100.00
74218;BME280;62579;47.288;18.646;2023-01-10T00:09:22;98612.38;;;6.34;100.00
74218;BME280;62579;47.288;18.646;2023-01-10T00:11:48;98613.56;;;6.38;100.00
74218;BME280;62579;47.288;18.646;2023-01-10T00:14:31;98616.50;;;6.35;100.00
74218;BME280;62579;47.288;18.646;2023-01-10T00:17:00;98602.53;;;6.36;100.00
74218;BME280;62579;47.288;18.646;2023-01-10T00:19:26;98608.41;;;6.35;100.00
74218;BME280;62579;47.288;18.646;2023-01-10T00:21:51;98601.31;;;6.37;100.00
74218;BME280;62579;47.288;18.646;2023-01-10T00:24:16;98595.19;;;6.26;100.00
74218;BME280;62579;47.288;18.646;2023-01-10T00:26:47;98591.47;;;6.40;100.00
74218;BME280;62579;47.288;18.646;2023-01-10T00:29:17;98591.00;;;6.30;100.00
74218;BME280;62579;47.288;18.646;2023-01-10T00:31:43;98594.44;;;6.31;100.00
74218;BME280;62579;47.288;18.646;2023-01-10T00:34:08;98586.59;;;6.27;100.00
74218;BME280;62579;47.288;18.646;2023-01-10T00:36:33;98583.13;;;6.27;100.00
74218;BME280;62579;47.288;18.646;2023-01-10T00:38:59;98590.75;;;6.34;100.00
74218;BME280;62579;47.288;18.646;2023-01-10T00:41:24;98584.37;;;6.31;100.00
74218;BME280;62579;47.288;18.646;2023-01-10T00:44:08;98593.47;;;6.28;100.00
74218;BME280;62579;47.288;18.646;2023-01-10T00:46:33;98594.47;;;6.25;100.00
74218;BME280;62579;47.288;18.646;2023-01-10T00:48:59;98593.72;;;6.19;100.00
74218;BME280;62579;47.288;18.646;2023-01-10T00:51:26;98596.66;;;6.27;100.00
74218;BME280;62579;47.288;18.646;2023-01-10T00:53:51;98599.13;;;6.19;99.84
74218;BME280;62579;47.288;18.646;2023-01-10T00:56:16;98592.00;;;6.22;100.00
74218;BME280;62579;47.288;18.646;2023-01-10T00:58:42;98596.44;;;6.19;100.00
74218;BME280;62579;47.288;18.646;2023-01-10T01:01:09;98598.87;;;6.23;99.99
74218;BME280;62579;47.288;18.646;2023-01-10T01:06:09;98595.00;;;6.13;100.00
74218;BME280;62579;47.288;18.646;2023-01-10T01:08:35;98599.91;;;6.03;100.00
74218;BME280;62579;47.288;18.646;2023-01-10T01:11:00;98590.06;;;6.11;100.00
74218;BME280;62579;47.288;18.646;2023-01-10T01:13:25;98604.56;;;6.02;100.00
74218;BME280;62579;47.288;18.646;2023-01-10T01:15:51;98599.19;;;6.02;100.00
74218;BME280;62579;47.288;18.646;2023-01-10T01:18:19;98604.84;;;5.93;100.00
74218;BME280;62579;47.288;18.646;2023-01-10T01:20:46;98600.66;;;5.98;99.81
74218;BME280;62579;47.288;18.646;2023-01-10T01:23:12;98609.50;;;5.82;99.34
74218;BME280;62579;47.288;18.646;2023-01-10T01:25:38;98607.56;;;5.88;99.46
74218;BME280;62579;47.288;18.646;2023-01-10T01:28:04;98606.06;;;5.81;99.29
74218;BME280;62579;47.288;18.646;2023-01-10T01:30:30;98611.72;;;5.83;98.56
74218;BME280;62579;47.288;18.646;2023-01-10T01:32:55;98610.75;;;5.75;98.53
74218;BME280;62579;47.288;18.646;2023-01-10T01:35:21;98618.12;;;5.69;98.37
74218;BME280;62579;47.288;18.646;2023-01-10T01:37:46;98618.88;;;5.64;98.60
74218;BME280;62579;47.288;18.646;2023-01-10T01:40:15;98611.00;;;5.66;98.51
74218;BME280;62579;47.288;18.646;2023-01-10T01:42:41;98613.69;;;5.61;98.45
74218;BME280;62579;47.288;18.646;2023-01-10T01:47:46;98629.66;;;5.59;98.59
74218;BME280;62579;47.288;18.646;2023-01-10T01:50:47;98625.25;;;5.61;98.88
74218;BME280;62579;47.288;18.646;2023-01-10T01:55:46;98640.22;;;5.57;99.21
74218;BME280;62579;47.288;18.646;2023-01-10T01:58:20;98632.84;;;5.57;99.18
74218;BME280;62579;47.288;18.646;2023-01-10T02:00:48;98649.53;;;5.61;99.00
74218;BME280;62579;47.288;18.646;2023-01-10T02:03:14;98645.59;;;5.45;99.01
74218;BME280;62579;47.288;18.646;2023-01-10T02:05:39;98646.59;;;5.48;98.42
74218;BME280;62579;47.288;18.646;2023-01-10T02:08:06;98644.13;;;5.44;98.79
74218;BME280;62579;47.288;18.646;2023-01-10T02:11:08;98638.47;;;5.42;98.77
74218;BME280;62579;47.288;18.646;2023-01-10T02:13:38;98637.22;;;5.38;99.29
74218;BME280;62579;47.288;18.646;2023-01-10T02:16:05;98643.87;;;5.42;98.91
74218;BME280;62579;47.288;18.646;2023-01-10T02:18:30;98649.75;;;5.41;98.63
74218;BME280;62579;47.288;18.646;2023-01-10T02:24:15;98651.22;;;5.31;98.96
74218;BME280;62579;47.288;18.646;2023-01-10T02:32:19;98640.91;;;5.24;98.79
74218;BME280;62579;47.288;18.646;2023-01-10T02:37:59;98643.09;;;5.20;99.14
74218;BME280;62579;47.288;18.646;2023-01-10T02:43:33;98647.53;;;5.17;98.89
74218;BME280;62579;47.288;18.646;2023-01-10T02:46:14;98649.97;;;5.15;98.54
74218;BME280;62579;47.288;18.646;2023-01-10T02:48:41;98654.63;;;5.15;98.87
74218;BME280;62579;47.288;18.646;2023-01-10T02:54:15;98642.09;;;5.06;99.61
74218;BME280;62579;47.288;18.646;2023-01-10T03:01:59;98636.22;;;4.97;99.51
74218;BME280;62579;47.288;18.646;2023-01-10T03:10:08;98645.75;;;4.98;99.57
74218;BME280;62579;47.288;18.646;2023-01-10T03:13:01;98641.59;;;4.91;100.00
74218;BME280;62579;47.288;18.646;2023-01-10T03:15:31;98655.06;;;4.91;99.98
74218;BME280;62579;47.288;18.646;2023-01-10T03:18:01;98649.91;;;4.93;99.96
74218;BME280;62579;47.288;18.646;2023-01-10T03:20:30;98667.31;;;4.98;99.80
74218;BME280;62579;47.288;18.646;2023-01-10T03:22:56;98657.78;;;4.97;99.77
74218;BME280;62579;47.288;18.646;2023-01-10T03:25:25;98658.50;;;4.92;99.99
74218;BME280;62579;47.288;18.646;2023-01-10T03:28:07;98656.53;;;4.92;100.00
74218;BME280;62579;47.288;18.646;2023-01-10T03:30:42;98649.91;;;4.93;99.94
74218;BME280;62579;47.288;18.646;2023-01-10T03:33:10;98651.16;;;4.92;100.00
74218;BME280;62579;47.288;18.646;2023-01-10T03:38:45;98657.28;;;5.04;99.38
74218;BME280;62579;47.288;18.646;2023-01-10T03:44:19;98661.22;;;4.97;99.46
74218;BME280;62579;47.288;18.646;2023-01-10T03:49:38;98661.94;;;4.98;99.63
74218;BME280;62579;47.288;18.646;2023-01-10T03:52:06;98665.88;;;5.02;99.50
74218;BME280;62579;47.288;18.646;2023-01-10T03:54:33;98666.09;;;4.99;99.50
74218;BME280;62579;47.288;18.646;2023-01-10T03:57:22;98654.84;;;5.00;99.49
74218;BME280;62579;47.288;18.646;2023-01-10T03:59:53;98650.66;;;4.99;99.63
74218;BME280;62579;47.288;18.646;2023-01-10T04:02:19;98665.88;;;5.02;99.18
74218;BME280;62579;47.288;18.646;2023-01-10T04:04:45;98667.06;;;4.96;99.32
74218;BME280;62579;47.288;18.646;2023-01-10T04:07:10;98670.75;;;4.98;98.88
74218;BME280;62579;47.288;18.646;2023-01-10T04:09:36;98674.94;;;4.99;99.20
74218;BME280;62579;47.288;18.646;2023-01-10T04:12:01;98666.34;;;4.95;99.22
74218;BME280;62579;47.288;18.646;2023-01-10T04:14:27;98672.03;;;5.08;98.88
74218;BME280;62579;47.288;18.646;2023-01-10T04:16:52;98671.25;;;4.97;99.31
74218;BME280;62579;47.288;18.646;2023-01-10T04:19:18;98678.38;;;5.00;98.62
74218;BME280;62579;47.288;18.646;2023-01-10T04:21:43;98672.72;;;5.03;98.55
74218;BME280;62579;47.288;18.646;2023-01-10T04:24:08;98681.56;;;5.04;98.23
74218;BME280;62579;47.288;18.646;2023-01-10T04:26:34;98672.25;;;5.05;98.16
74218;BME280;62579;47.288;18.646;2023-01-10T04:28:59;98658.03;;;4.99;97.77
74218;BME280;62579;47.288;18.646;2023-01-10T04:31:24;98667.06;;;4.96;98.08
74218;BME280;62579;47.288;18.646;2023-01-10T04:33:51;98664.88;;;4.94;98.35
74218;BME280;62579;47.288;18.646;2023-01-10T04:36:16;98670.03;;;4.92;98.37
74218;BME280;62579;47.288;18.646;2023-01-10T04:38:41;98681.50;;;4.87;98.76
74218;BME280;62579;47.288;18.646;2023-01-10T04:41:08;98686.88;;;4.87;98.57
74218;BME280;62579;47.288;18.646;2023-01-10T04:43:33;98711.66;;;4.85;98.76
74218;BME280;62579;47.288;18.646;2023-01-10T04:45:59;98713.37;;;4.89;98.83
74218;BME280;62579;47.288;18.646;2023-01-10T04:48:24;98701.84;;;4.88;98.11
74218;BME280;62579;47.288;18.646;2023-01-10T04:50:51;98716.06;;;4.83;98.68
74218;BME280;62579;47.288;18.646;2023-01-10T04:53:18;98723.91;;;4.87;98.41
74218;BME280;62579;47.288;18.646;2023-01-10T04:55:43;98732.97;;;4.83;98.77
74218;BME280;62579;47.288;18.646;2023-01-10T04:58:09;98737.38;;;4.81;98.47
74218;BME280;62579;47.288;18.646;2023-01-10T05:00:34;98740.28;;;4.77;99.16
74218;BME280;62579;47.288;18.646;2023-01-10T05:02:59;98748.88;;;4.81;98.48
74218;BME280;62579;47.288;18.646;2023-01-10T05:05:25;98751.81;;;4.78;98.75
74218;BME280;62579;47.288;18.646;2023-01-10T05:07:52;98751.53;;;4.70;99.01
74218;BME280;62579;47.288;18.646;2023-01-10T05:10:18;98736.63;;;4.80;98.50
74218;BME280;62579;47.288;18.646;2023-01-10T05:12:44;98746.88;;;4.76;98.81
74218;BME280;62579;47.288;18.646;2023-01-10T05:15:10;98761.84;;;4.77;99.05
74218;BME280;62579;47.288;18.646;2023-01-10T05:17:35;98753.97;;;4.74;99.57
74218;BME280;62579;47.288;18.646;2023-01-10T05:20:01;98757.16;;;4.72;100.00
74218;BME280;62579;47.288;18.646;2023-01-10T05:22:26;98767.00;;;4.75;99.96
74218;BME280;62579;47.288;18.646;2023-01-10T05:24:51;98769.16;;;4.71;100.00
74218;BME280;62579;47.288;18.646;2023-01-10T05:27:17;98767.94;;;4.72;100.00
74218;BME280;62579;47.288;18.646;2023-01-10T05:29:42;98768.44;;;4.76;100.00
74218;BME280;62579;47.288;18.646;2023-01-10T05:32:08;98765.78;;;4.82;100.00
74218;BME280;62579;47.288;18.646;2023-01-10T05:34:34;98773.84;;;4.76;100.00
74218;BME280;62579;47.288;18.646;2023-01-10T05:36:59;98779.06;;;4.91;100.00
74218;BME280;62579;47.288;18.646;2023-01-10T05:39:24;98772.66;;;4.83;100.00
74218;BME280;62579;47.288;18.646;2023-01-10T05:41:50;98777.34;;;4.88;100.00
74218;BME280;62579;47.288;18.646;2023-01-10T05:44:15;98783.94;;;4.87;99.99
74218;BME280;62579;47.288;18.646;2023-01-10T05:46:40;98789.81;;;4.85;99.77
74218;BME280;62579;47.288;18.646;2023-01-10T05:49:06;98792.50;;;4.85;99.84
74218;BME280;62579;47.288;18.646;2023-01-10T05:51:31;98799.31;;;4.75;99.70
74218;BME280;62579;47.288;18.646;2023-01-10T05:53:56;98799.41;;;4.87;99.59
74218;BME280;62579;47.288;18.646;2023-01-10T05:56:23;98789.28;;;4.81;99.72
74218;BME280;62579;47.288;18.646;2023-01-10T05:58:49;98795.53;;;5.04;100.00
74218;BME280;62579;47.288;18.646;2023-01-10T06:01:14;98801.59;;;4.88;99.28
74218;BME280;62579;47.288;18.646;2023-01-10T06:03:40;98802.78;;;4.81;99.26
74218;BME280;62579;47.288;18.646;2023-01-10T06:06:05;98801.31;;;4.80;98.93
74218;BME280;62579;47.288;18.646;2023-01-10T06:08:31;98800.78;;;4.76;98.89
74218;BME280;62579;47.288;18.646;2023-01-10T06:10:56;98799.53;;;4.72;99.07
74218;BME280;62579;47.288;18.646;2023-01-10T06:13:22;98817.47;;;4.80;98.62
74218;BME280;62579;47.288;18.646;2023-01-10T06:15:48;98819.44;;;4.80;98.24
74218;BME280;62579;47.288;18.646;2023-01-10T06:18:13;98838.78;;;4.78;98.13
74218;BME280;62579;47.288;18.646;2023-01-10T06:20:39;98842.16;;;4.73;98.53
74218;BME280;62579;47.288;18.646;2023-01-10T06:23:05;98830.94;;;4.75;98.63
74218;BME280;62579;47.288;18.646;2023-01-10T06:25:35;98848.59;;;4.76;98.25
74218;BME280;62579;47.288;18.646;2023-01-10T06:28:04;98836.78;;;4.73;98.73
74218;BME280;62579;47.288;18.646;2023-01-10T06:30:30;98846.34;;;4.74;98.51
74218;BME280;62579;47.288;18.646;2023-01-10T06:33:02;98845.41;;;4.77;98.42
74218;BME280;62579;47.288;18.646;2023-01-10T06:35:29;98841.91;;;4.71;98.43
74218;BME280;62579;47.288;18.646;2023-01-10T06:37:55;98854.94;;;4.73;98.59
74218;BME280;62579;47.288;18.646;2023-01-10T06:40:20;98857.59;;;4.67;98.73
74218;BME280;62579;47.288;18.646;2023-01-10T06:42:45;98862.53;;;4.74;97.91
74218;BME280;62579;47.288;18.646;2023-01-10T06:45:11;98862.22;;;4.67;98.58
74218;BME280;62579;47.288;18.646;2023-01-10T06:47:36;98878.09;;;4.59;98.74
74218;BME280;62579;47.288;18.646;2023-01-10T06:50:03;98877.88;;;4.63;98.87
74218;BME280;62579;47.288;18.646;2023-01-10T06:52:29;98885.22;;;4.62;99.31
74218;BME280;62579;47.288;18.646;2023-01-10T06:54:55;98889.19;;;4.67;98.98
74218;BME280;62579;47.288;18.646;2023-01-10T06:57:20;98889.22;;;4.72;98.24
74218;BME280;62579;47.288;18.646;2023-01-10T06:59:46;98899.91;;;4.61;98.88
74218;BME280;62579;47.288;18.646;2023-01-10T07:02:11;98900.22;;;4.69;98.73
74218;BME280;62579;47.288;18.646;2023-01-10T07:04:36;98920.06;;;4.71;98.51
74218;BME280;62579;47.288;18.646;2023-01-10T07:07:02;98920.97;;;4.63;98.86
74218;BME280;62579;47.288;18.646;2023-01-10T07:09:27;98935.25;;;4.69;98.55
74218;BME280;62579;47.288;18.646;2023-01-10T07:11:53;98945.50;;;4.65;98.73
74218;BME280;62579;47.288;18.646;2023-01-10T07:14:18;98947.72;;;4.66;99.01
74218;BME280;62579;47.288;18.646;2023-01-10T07:16:44;98942.13;;;4.70;98.59
74218;BME280;62579;47.288;18.646;2023-01-10T07:19:09;98950.25;;;4.75;98.42
74218;BME280;62579;47.288;18.646;2023-01-10T07:21:37;98962.50;;;4.76;98.29
74218;BME280;62579;47.288;18.646;2023-01-10T07:24:03;98959.53;;;4.74;98.12
74218;BME280;62579;47.288;18.646;2023-01-10T07:26:28;98957.66;;;4.80;98.13
74218;BME280;62579;47.288;18.646;2023-01-10T07:28:54;98973.28;;;4.76;98.05
74218;BME280;62579;47.288;18.646;2023-01-10T07:31:20;98971.53;;;4.73;97.84
74218;BME280;62579;47.288;18.646;2023-01-10T07:33:46;98978.66;;;4.76;98.08
74218;BME280;62579;47.288;18.646;2023-01-10T07:36:12;98977.94;;;4.76;97.83
74218;BME280;62579;47.288;18.646;2023-01-10T07:38:37;98987.56;;;4.82;97.68
74218;BME280;62579;47.288;18.646;2023-01-10T07:41:03;98983.06;;;4.74;97.29
74218;BME280;62579;47.288;18.646;2023-01-10T07:43:30;99011.69;;;4.71;97.53
74218;BME280;62579;47.288;18.646;2023-01-10T07:46:02;98997.78;;;4.73;97.47
74218;BME280;62579;47.288;18.646;2023-01-10T07:48:28;99007.06;;;4.72;97.65
74218;BME280;62579;47.288;18.646;2023-01-10T07:50:58;99023.66;;;4.65;98.12
74218;BME280;62579;47.288;18.646;2023-01-10T07:53:25;99023.91;;;4.67;98.08
74218;BME280;62579;47.288;18.646;2023-01-10T07:55:51;99029.50;;;4.63;97.51
74218;BME280;62579;47.288;18.646;2023-01-10T07:58:16;99032.25;;;4.69;97.51
74218;BME280;62579;47.288;18.646;2023-01-10T08:00:41;99038.41;;;4.69;97.43
74218;BME280;62579;47.288;18.646;2023-01-10T08:03:09;99051.00;;;4.58;97.22
74218;BME280;62579;47.288;18.646;2023-01-10T08:05:34;99063.75;;;4.57;97.94
74218;BME280;62579;47.288;18.646;2023-01-10T08:08:07;99062.00;;;4.54;97.80
74218;BME280;62579;47.288;18.646;2023-01-10T08:10:34;99074.00;;;4.53;98.08
74218;BME280;62579;47.288;18.646;2023-01-10T08:13:00;99066.22;;;4.61;97.75
74218;BME280;62579;47.288;18.646;2023-01-10T08:15:25;99089.03;;;4.60;97.01
74218;BME280;62579;47.288;18.646;2023-01-10T08:17:51;99095.81;;;4.55;97.17
74218;BME280;62579;47.288;18.646;2023-01-10T08:20:16;99112.97;;;4.58;97.65
74218;BME280;62579;47.288;18.646;2023-01-10T08:22:42;99106.00;;;4.46;98.07
74218;BME280;62579;47.288;18.646;2023-01-10T08:25:07;99111.22;;;4.55;97.37
74218;BME280;62579;47.288;18.646;2023-01-10T08:27:33;99122.09;;;4.40;96.87
74218;BME280;62579;47.288;18.646;2023-01-10T08:29:58;99119.59;;;4.37;96.86
74218;BME280;62579;47.288;18.646;2023-01-10T08:32:24;99120.41;;;4.43;97.16
74218;BME280;62579;47.288;18.646;2023-01-10T08:34:49;99129.84;;;4.33;97.11
74218;BME280;62579;47.288;18.646;2023-01-10T08:37:15;99122.47;;;4.33;97.01
74218;BME280;62579;47.288;18.646;2023-01-10T08:39:40;99115.06;;;4.28;98.03
74218;BME280;62579;47.288;18.646;2023-01-10T08:42:06;99136.53;;;4.22;98.26
74218;BME280;62579;47.288;18.646;2023-01-10T08:44:31;99137.63;;;4.31;98.25
74218;BME280;62579;47.288;18.646;2023-01-10T08:46:56;99139.03;;;4.26;97.99
74218;BME280;62579;47.288;18.646;2023-01-10T08:49:22;99147.59;;;4.24;97.75
74218;BME280;62579;47.288;18.646;2023-01-10T08:51:47;99149.56;;;4.24;97.33
74218;BME280;62579;47.288;18.646;2023-01-10T08:54:13;99154.06;;;4.33;97.42
74218;BME280;62579;47.288;18.646;2023-01-10T08:56:38;99161.88;;;4.31;97.00
74218;BME280;62579;47.288;18.646;2023-01-10T08:59:05;99167.19;;;4.25;96.68
74218;BME280;62579;47.288;18.646;2023-01-10T09:01:30;99166.91;;;4.23;97.45
74218;BME280;62579;47.288;18.646;2023-01-10T09:03:55;99175.47;;;4.21;97.56
74218;BME280;62579;47.288;18.646;2023-01-10T09:06:20;99175.19;;;4.19;97.55
74218;BME280;62579;47.288;18.646;2023-01-10T09:08:46;99188.00;;;4.24;98.45
74218;BME280;62579;47.288;18.646;2023-01-10T09:11:11;99189.31;;;4.14;98.22
74218;BME280;62579;47.288;18.646;2023-01-10T09:13:37;99186.25;;;4.21;98.37
74218;BME280;62579;47.288;18.646;2023-01-10T09:16:04;99189.59;;;4.16;98.40
74218;BME280;62579;47.288;18.646;2023-01-10T09:18:29;99206.03;;;4.18;98.85
74218;BME280;62579;47.288;18.646;2023-01-10T09:20:55;99210.56;;;4.12;98.80
74218;BME280;62579;47.288;18.646;2023-01-10T09:23:21;99211.16;;;4.16;97.80
74218;BME280;62579;47.288;18.646;2023-01-10T09:25:49;99230.06;;;4.22;98.51
74218;BME280;62579;47.288;18.646;2023-01-10T09:28:15;99237.59;;;4.18;98.81
74218;BME280;62579;47.288;18.646;2023-01-10T09:30:41;99231.94;;;4.16;98.54
74218;BME280;62579;47.288;18.646;2023-01-10T09:33:07;99232.28;;;4.23;98.14
74218;BME280;62579;47.288;18.646;2023-01-10T09:35:35;99238.44;;;4.24;98.49
74218;BME280;62579;47.288;18.646;2023-01-10T09:38:02;99238.25;;;4.28;98.58
74218;BME280;62579;47.288;18.646;2023-01-10T09:40:33;99249.00;;;4.28;98.90
74218;BME280;62579;47.288;18.646;2023-01-10T09:51:40;99256.13;;;4.31;98.06
74218;BME280;62579;47.288;18.646;2023-01-10T09:54:13;99274.81;;;4.34;98.58
74218;BME280;62579;47.288;18.646;2023-01-10T09:56:40;99280.59;;;4.27;98.27
74218;BME280;62579;47.288;18.646;2023-01-10T09:59:12;99299.97;;;4.31;98.36
74218;BME280;62579;47.288;18.646;2023-01-10T10:01:39;99288.38;;;4.40;97.84
74218;BME280;62579;47.288;18.646;2023-01-10T10:06:39;99302.75;;;4.37;97.83
74218;BME280;62579;47.288;18.646;2023-01-10T10:09:04;99305.19;;;4.35;97.66
74218;BME280;62579;47.288;18.646;2023-01-10T10:19:48;99305.09;;;4.44;97.44
74218;BME280;62579;47.288;18.646;2023-01-10T10:22:28;99298.38;;;4.39;97.29
74218;BME280;62579;47.288;18.646;2023-01-10T10:30:47;99321.53;;;4.46;97.10
74218;BME280;62579;47.288;18.646;2023-01-10T10:35:53;99314.53;;;4.54;97.32
74218;BME280;62579;47.288;18.646;2023-01-10T10:38:31;99287.88;;;4.56;97.49
74218;BME280;62579;47.288;18.646;2023-01-10T10:40:58;99297.16;;;4.55;97.18
74218;BME280;62579;47.288;18.646;2023-01-10T10:43:30;99335.72;;;4.61;96.60
74218;BME280;62579;47.288;18.646;2023-01-10T10:46:07;99323.25;;;4.63;96.81
74218;BME280;62579;47.288;18.646;2023-01-10T10:48:41;99324.75;;;4.64;97.26
74218;BME280;62579;47.288;18.646;2023-01-10T10:54:02;99325.50;;;4.65;97.38
74218;BME280;62579;47.288;18.646;2023-01-10T10:56:30;99338.22;;;4.64;97.27
74218;BME280;62579;47.288;18.646;2023-01-10T10:58:57;99328.81;;;4.74;97.25
74218;BME280;62579;47.288;18.646;2023-01-10T11:01:23;99356.03;;;4.76;96.95
74218;BME280;62579;47.288;18.646;2023-01-10T11:03:56;99362.16;;;4.77;96.64
74218;BME280;62579;47.288;18.646;2023-01-10T11:06:28;99347.94;;;4.76;97.37
74218;BME280;62579;47.288;18.646;2023-01-10T11:08:56;99346.00;;;4.77;96.84
74218;BME280;62579;47.288;18.646;2023-01-10T11:13:53;99362.50;;;4.84;97.40
74218;BME280;62579;47.288;18.646;2023-01-10T11:16:24;99367.19;;;4.84;98.37
74218;BME280;62579;47.288;18.646;2023-01-10T11:21:35;99366.53;;;4.89;97.32
74218;BME280;62579;47.288;18.646;2023-01-10T11:24:02;99380.19;;;4.85;96.94
74218;BME280;62579;47.288;18.646;2023-01-10T11:26:30;99379.62;;;4.81;96.21
74218;BME280;62579;47.288;18.646;2023-01-10T11:29:07;99372.56;;;4.84;96.70
74218;BME280;62579;47.288;18.646;2023-01-10T11:31:38;99388.47;;;4.82;96.64
74218;BME280;62579;47.288;18.646;2023-01-10T11:34:07;99390.69;;;4.83;97.00
74218;BME280;62579;47.288;18.646;2023-01-10T11:39:42;99395.78;;;4.81;97.16
74218;BME280;62579;47.288;18.646;2023-01-10T11:44:48;99391.37;;;4.78;96.68
74218;BME280;62579;47.288;18.646;2023-01-10T11:47:14;99408.06;;;4.82;96.87
74218;BME280;62579;47.288;18.646;2023-01-10T11:49:45;99407.22;;;4.91;96.32
74218;BME280;62579;47.288;18.646;2023-01-10T11:52:28;99406.13;;;4.83;96.60
74218;BME280;62579;47.288;18.646;2023-01-10T11:54:55;99418.47;;;4.90;97.01
74218;BME280;62579;47.288;18.646;2023-01-10T11:57:29;99415.22;;;4.85;96.57
74218;BME280;62579;47.288;18.646;2023-01-10T12:00:02;99416.81;;;4.92;96.26
74218;BME280;62579;47.288;18.646;2023-01-10T12:02:50;99422.13;;;4.87;96.94
74218;BME280;62579;47.288;18.646;2023-01-10T12:05:21;99416.72;;;4.87;97.23
74218;BME280;62579;47.288;18.646;2023-01-10T12:07:57;99445.72;;;4.92;96.36
74218;BME280;62579;47.288;18.646;2023-01-10T12:10:25;99445.25;;;4.93;96.13
74218;BME280;62579;47.288;18.646;2023-01-10T12:12:52;99439.41;;;4.95;96.11
74218;BME280;62579;47.288;18.646;2023-01-10T12:15:25;99462.19;;;4.94;96.25
74218;BME280;62579;47.288;18.646;2023-01-10T12:17:51;99445.72;;;4.92;96.01
74218;BME280;62579;47.288;18.646;2023-01-10T12:20:18;99460.50;;;4.96;95.82
74218;BME280;62579;47.288;18.646;2023-01-10T12:22:50;99465.88;;;4.96;96.47
74218;BME280;62579;47.288;18.646;2023-01-10T12:25:41;99456.59;;;4.97;96.14
74218;BME280;62579;47.288;18.646;2023-01-10T12:28:20;99457.63;;;5.00;96.04
74218;BME280;62579;47.288;18.646;2023-01-10T12:30:47;99471.38;;;5.02;96.68
74218;BME280;62579;47.288;18.646;2023-01-10T12:33:36;99477.97;;;5.01;96.89
74218;BME280;62579;47.288;18.646;2023-01-10T12:36:28;99462.81;;;5.03;96.79
74218;BME280;62579;47.288;18.646;2023-01-10T12:44:29;99468.75;;;5.07;96.54
74218;BME280;62579;47.288;18.646;2023-01-10T12:47:16;99474.69;;;5.11;96.35
74218;BME280;62579;47.288;18.646;2023-01-10T12:49:48;99476.69;;;5.11;95.78
74218;BME280;62579;47.288;18.646;2023-01-10T12:52:36;99479.16;;;5.14;96.17
74218;BME280;62579;47.288;18.646;2023-01-10T12:55:12;99476.19;;;5.12;96.82
74218;BME280;62579;47.288;18.646;2023-01-10T12:57:39;99480.84;;;5.12;96.43
74218;BME280;62579;47.288;18.646;2023-01-10T13:00:15;99521.87;;;5.16;94.63
74218;BME280;62579;47.288;18.646;2023-01-10T13:02:45;99501.31;;;5.18;95.85
74218;BME280;62579;47.288;18.646;2023-01-10T13:05:23;99483.63;;;5.17;95.37
74218;BME280;62579;47.288;18.646;2023-01-10T13:07:50;99478.59;;;5.25;95.35
74218;BME280;62579;47.288;18.646;2023-01-10T13:10:20;99496.94;;;5.21;95.33
74218;BME280;62579;47.288;18.646;2023-01-10T13:12:52;99497.69;;;5.21;95.92
74218;BME280;62579;47.288;18.646;2023-01-10T13:18:11;99499.31;;;5.33;95.58
74218;BME280;62579;47.288;18.646;2023-01-10T13:20:40;99514.03;;;5.32;94.82
74218;BME280;62579;47.288;18.646;2023-01-10T13:23:22;99518.19;;;5.33;95.24
74218;BME280;62579;47.288;18.646;2023-01-10T13:26:20;99519.22;;;5.36;95.16
74218;BME280;62579;47.288;18.646;2023-01-10T13:28:57;99536.44;;;5.38;94.06
74218;BME280;62579;47.288;18.646;2023-01-10T13:31:33;99543.06;;;5.37;94.58
74218;BME280;62579;47.288;18.646;2023-01-10T13:34:04;99544.81;;;5.40;94.26
74218;BME280;62579;47.288;18.646;2023-01-10T13:36:46;99551.22;;;5.43;94.05
74218;BME280;62579;47.288;18.646;2023-01-10T13:39:26;99567.34;;;5.37;94.89
74218;BME280;62579;47.288;18.646;2023-01-10T14:01:25;99599.50;;;5.56;93.64
74218;BME280;62579;47.288;18.646;2023-01-10T14:04:21;99593.19;;;5.59;93.83
74218;BME280;62579;47.288;18.646;2023-01-10T14:09:46;99611.50;;;5.55;94.25
74218;BME280;62579;47.288;18.646;2023-01-10T14:12:47;99616.44;;;5.56;94.08
74218;BME280;62579;47.288;18.646;2023-01-10T14:15:35;99605.75;;;5.62;94.24
74218;BME280;62579;47.288;18.646;2023-01-10T14:18:04;99616.81;;;5.64;94.14
74218;BME280;62579;47.288;18.646;2023-01-10T14:20:32;99609.47;;;5.64;94.40
74218;BME280;62579;47.288;18.646;2023-01-10T14:23:19;99621.94;;;5.62;94.73
74218;BME280;62579;47.288;18.646;2023-01-10T14:25:51;99631.72;;;5.59;94.39
74218;BME280;62579;47.288;18.646;2023-01-10T14:28:22;99642.59;;;5.65;93.78
74218;BME280;62579;47.288;18.646;2023-01-10T14:33:41;99649.13;;;5.58;94.34
74218;BME280;62579;47.288;18.646;2023-01-10T14:36:13;99676.09;;;5.58;94.70
74218;BME280;62579;47.288;18.646;2023-01-10T14:38:43;99674.69;;;5.63;95.03
74218;BME280;62579;47.288;18.646;2023-01-10T14:41:19;99672.56;;;5.67;95.36
74218;BME280;62579;47.288;18.646;2023-01-10T14:43:57;99681.78;;;5.60;95.00
74218;BME280;62579;47.288;18.646;2023-01-10T14:46:30;99688.19;;;5.63;94.78
74218;BME280;62579;47.288;18.646;2023-01-10T14:48:57;99689.13;;;5.60;94.45
74218;BME280;62579;47.288;18.646;2023-01-10T14:51:31;99687.00;;;5.64;94.88
74218;BME280;62579;47.288;18.646;2023-01-10T14:53:58;99683.91;;;5.71;94.42
74218;BME280;62579;47.288;18.646;2023-01-10T14:56:37;99693.16;;;5.64;94.73
74218;BME280;62579;47.288;18.646;2023-01-10T14:59:25;99696.03;;;5.61;94.63
74218;BME280;62579;47.288;18.646;2023-01-10T15:01:57;99702.28;;;5.67;93.77
74218;BME280;62579;47.288;18.646;2023-01-10T15:04:31;99692.31;;;5.73;93.16
74218;BME280;62579;47.288;18.646;2023-01-10T15:07:09;99697.63;;;5.67;93.53
74218;BME280;62579;47.288;18.646;2023-01-10T15:09:36;99699.38;;;5.70;93.42
74218;BME280;62579;47.288;18.646;2023-01-10T15:12:04;99702.63;;;5.74;93.57